• Join FlightAware (Why Join?)
  • Login
  • US Flag 
11:06PM EST


 

Airport Tracker/Info


-or-


 

Live Flight TrackerFlight Track Log ✈ SWA1031 ✈ 30-Apr-2013 ✈ KSMF - KONT

Flight Track Log - Related Links

Times and Time Zones

All times are in EDT time to prevent confusion due to time zone crossing. See the SWA1031 flight status page for this flight to view local times or setup timezone preferences in your user account.

Time Position Orientation Groundspeed Altitude Reporting Facility
EDT Latitude Longitude Course Direction KTS MPH feet Rate Location/Type
03:01PM 38.7264 -121.5578 134° Southeast 208 239 5,100  Level Oakland Center
03:02PM 38.6772 -121.4947 135° Southeast 268 308 8,400 3,197 Climbing Oakland Center
03:03PM 38.6314 -121.4125 125° Southeast 300 345 11,600 3,197 Climbing Oakland Center
03:04PM 38.5750 -121.3111 125° Southeast 353 406 14,900 3,463 Climbing Oakland Center
03:05PM 38.5128 -121.1958 125° Southeast 377 434 18,700 2,976 Climbing Oakland Center
03:06PM 38.2814 -121.2096 134° Southeast  Level Estimated
03:06PM 38.4508 -121.0819 125° Southeast 397 457 21,000  Level Oakland Center
03:07PM 38.3711 -120.9358 125° Southeast 414 476 24,100 2,311 Climbing Oakland Center
03:08PM 38.3028 -120.8111 125° Southeast 423 487 25,700 1,672 Climbing Oakland Center
03:09PM 38.2297 -120.6828 126° Southeast 441 507 27,500 1,659 Climbing Oakland Center
03:10PM 38.1342 -120.5842 141° Southeast 440 506 29,100 1,805 Climbing Oakland Center
03:11PM 38.0314 -120.4842 143° Southeast 458 527 31,200 2,016 Climbing Oakland Center
03:12PM 37.9258 -120.3817 143° Southeast 474 545 33,200 2,341 Climbing Oakland Center
03:13PM 37.8214 -120.2786 142° Southeast 476 548 36,000 2,390 Climbing Oakland Center
03:14PM 37.7200 -120.1794 142° Southeast 465 535 38,100 1,770 Climbing Oakland Center
03:15PM 37.6142 -120.0825 144° Southeast 464 534 39,600 1,377 Climbing Oakland Center
03:16PM 37.5119 -119.9839 143° Southeast 461 531 40,900 683 Climbing Oakland Center
03:17PM 37.3872 -119.8639 143° Southeast 469 540 41,000 49 Climbing Oakland Center
03:18PM 37.2825 -119.7639 143° Southeast 463 533 41,000  Level Oakland Center
03:19PM 37.1822 -119.6689 143° Southeast 462 532 41,000  Level Oakland Center
03:20PM 37.0692 -119.5781 147° Southeast 446 513 41,000  Level Oakland Center
03:21PM 36.9556 -119.5225 159° South 446 513 41,000  Level Oakland Center
03:22PM 36.8403 -119.4686 159° South 451 519 41,000  Level Oakland Center
03:23PM 36.7156 -119.4083 159° South 447 514 41,000  Level Oakland Center
03:24PM 36.6000 -119.3536 159° South 452 520 41,000  Level Oakland Center
03:25PM 36.4753 -119.2953 159° South 450 518 41,000  Level Oakland Center
03:26PM 36.3600 -119.2408 159° South 451 519 41,000  Level Oakland Center
03:27PM 36.2361 -119.1831 159° South 451 519 41,000  Level Oakland Center
03:28PM 36.1372 -119.1358 159° South 453 521 41,000  Level Oakland Center
03:29PM 35.9969 -119.0689 159° South 452 520 41,000  Level Oakland Center
03:30PM 35.8792 -119.0139 159° South 453 521 41,000  Level Oakland Center
03:31PM 35.7647 -118.9631 160° South 441 507 41,000  Level Oakland Center
03:32PM 35.6469 -118.9083 159° South 446 513 41,000 -234 Level Oakland Center
03:33PM 35.5267 -118.8514 159° South 447 514 40,500 -656 Descending Los Angeles Center
03:34PM 35.4097 -118.7978 160° South 449 517 39,600 -1,016 Descending Los Angeles Center
03:35PM 35.2725 -118.7361 160° South 442 509 38,400 -1,935 Descending Los Angeles Center
03:37PM 35.1567 -118.6828 159° South 446 513 35,600 -2,426 Descending Los Angeles Center
03:38PM 35.0397 -118.6289 159° South 450 518 32,900 -2,453 Descending Los Angeles Center
03:39PM 34.9367 -118.5061 136° Southeast 438 504 30,000 -2,544 Descending Los Angeles Center
03:40PM 34.8617 -118.3961 130° Southeast 427 491 27,600 -1,742 Descending Los Angeles Center
03:41PM 34.7731 -118.2700 131° Southeast 416 479 26,400 -1,210 Descending Los Angeles Center
03:42PM 34.7019 -118.1681 130° Southeast 405 466 25,100 -1,645 Descending Los Angeles Center
03:43PM 34.6314 -118.0661 130° Southeast 393 452 23,000 -1,694 Descending Los Angeles Center
03:44PM 34.5817 -117.9589 119° Southeast 378 435 21,600 -1,548 Descending Los Angeles Center
03:45PM 34.5331 -117.8514 119° Southeast 368 423 19,800 -1,403 Descending Los Angeles Center
03:46PM 34.4739 -117.7231 119° Southeast 368 423 18,700 -1,065 Descending Los Angeles Center
03:47PM 34.4253 -117.6167 119° Southeast 365 420 17,600 -1,355 Descending Los Angeles Center
03:48PM 34.3769 -117.5106 119° Southeast 347 399 15,900 -1,776 Descending Los Angeles Center
03:49PM 34.3308 -117.4108 119° Southeast 342 394 13,900 -1,680 Descending Los Angeles Center
03:50PM 34.2858 -117.3153 120° Southeast 331 381 12,400 -1,742 Descending Los Angeles Center
03:51PM 34.2200 -117.2497 141° Southeast 324 373 10,300 -2,323 Descending Los Angeles Center
03:52PM 34.1317 -117.2139 161° South 287 330 7,600 -2,226 Descending Los Angeles Center
03:53PM 34.0756 -117.2606 215° Southwest 263 303 5,700 -1,452 Descending Los Angeles Center
03:54PM 34.0667 -117.3500 263° West 246 283 4,600 -1,172 Descending Southern California TRACON
03:55PM 34.0500 -117.4333 256° West 228 262 3,200 -1,100 Descending Southern California TRACON
03:56PM 34.0500 -117.4833 270° West 180 207 2,400 -842 Descending Southern California TRACON
03:57PM 34.0500 -117.5333 270° West 130 150 1,600 -800 Descending Southern California TRACON
04:01PM 34.0500 -117.6000 270° West  Level FlightAware Approximate